sensor_id;sensor_type;location;lat;lon;timestamp;P1;P2;P0
51052;PMS5003;37093;37.716;-122.060;2022-10-31T00:02:09;27;25;
51052;PMS5003;37093;37.716;-122.060;2022-10-31T00:04:38;27;22;
51052;PMS5003;37093;37.716;-122.060;2022-10-31T00:07:06;27;24;
51052;PMS5003;37093;37.716;-122.060;2022-10-31T00:09:35;39;27;
51052;PMS5003;37093;37.716;-122.060;2022-10-31T00:12:03;29;26;
51052;PMS5003;37093;37.716;-122.060;2022-10-31T00:14:32;32;23;
51052;PMS5003;37093;37.716;-122.060;2022-10-31T00:17:00;31;23;
51052;PMS5003;37093;37.716;-122.060;2022-10-31T00:19:34;27;24;
51052;PMS5003;37093;37.716;-122.060;2022-10-31T00:22:02;28;25;
51052;PMS5003;37093;37.716;-122.060;2022-10-31T00:24:30;27;22;
51052;PMS5003;37093;37.716;-122.060;2022-10-31T00:26:58;28;24;
51052;PMS5003;37093;37.716;-122.060;2022-10-31T00:29:27;30;25;
51052;PMS5003;37093;37.716;-122.060;2022-10-31T00:31:56;35;22;
51052;PMS5003;37093;37.716;-122.060;2022-10-31T00:34:24;32;24;
51052;PMS5003;37093;37.716;-122.060;2022-10-31T00:36:53;38;27;
51052;PMS5003;37093;37.716;-122.060;2022-10-31T00:39:21;26;23;
51052;PMS5003;37093;37.716;-122.060;2022-10-31T00:41:49;25;24;
51052;PMS5003;37093;37.716;-122.060;2022-10-31T00:44:23;33;28;
51052;PMS5003;37093;37.716;-122.060;2022-10-31T00:46:51;26;25;
51052;PMS5003;37093;37.716;-122.060;2022-10-31T00:49:19;41;29;
51052;PMS5003;37093;37.716;-122.060;2022-10-31T00:51:47;40;25;
51052;PMS5003;37093;37.716;-122.060;2022-10-31T00:54:16;37;24;
51052;PMS5003;37093;37.716;-122.060;2022-10-31T00:56:44;28;27;
51052;PMS5003;37093;37.716;-122.060;2022-10-31T00:59:13;24;24;
51052;PMS5003;37093;37.716;-122.060;2022-10-31T01:01:41;40;29;
51052;PMS5003;37093;37.716;-122.060;2022-10-31T01:04:10;39;24;
51052;PMS5003;37093;37.716;-122.060;2022-10-31T01:06:39;26;23;
51052;PMS5003;37093;37.716;-122.060;2022-10-31T01:09:07;31;29;
51052;PMS5003;37093;37.716;-122.060;2022-10-31T01:11:35;30;28;
51052;PMS5003;37093;37.716;-122.060;2022-10-31T01:14:03;33;22;
51052;PMS5003;37093;37.716;-122.060;2022-10-31T01:16:37;37;26;
51052;PMS5003;37093;37.716;-122.060;2022-10-31T01:19:05;37;21;
51052;PMS5003;37093;37.716;-122.060;2022-10-31T01:21:34;28;25;
51052;PMS5003;37093;37.716;-122.060;2022-10-31T01:24:03;37;25;
51052;PMS5003;37093;37.716;-122.060;2022-10-31T01:26:32;25;23;
51052;PMS5003;37093;37.716;-122.060;2022-10-31T01:29:03;34;25;
51052;PMS5003;37093;37.716;-122.060;2022-10-31T01:31:35;32;28;
51052;PMS5003;37093;37.716;-122.060;2022-10-31T01:34:06;38;26;
51052;PMS5003;37093;37.716;-122.060;2022-10-31T01:36:39;45;31;
51052;PMS5003;37093;37.716;-122.060;2022-10-31T01:39:10;39;27;
51052;PMS5003;37093;37.716;-122.060;2022-10-31T01:41:40;40;26;
51052;PMS5003;37093;37.716;-122.060;2022-10-31T01:45:15;37;26;
51052;PMS5003;37093;37.716;-122.060;2022-10-31T01:47:45;32;22;
51052;PMS5003;37093;37.716;-122.060;2022-10-31T01:50:21;39;28;
51052;PMS5003;37093;37.716;-122.060;2022-10-31T01:52:55;32;26;
51052;PMS5003;37093;37.716;-122.060;2022-10-31T01:55:25;25;25;
51052;PMS5003;37093;37.716;-122.060;2022-10-31T01:57:58;48;40;
51052;PMS5003;37093;37.716;-122.060;2022-10-31T02:00:30;48;38;
51052;PMS5003;37093;37.716;-122.060;2022-10-31T02:02:59;45;38;
51052;PMS5003;37093;37.716;-122.060;2022-10-31T02:05:28;49;32;
51052;PMS5003;37093;37.716;-122.060;2022-10-31T02:07:59;35;27;
51052;PMS5003;37093;37.716;-122.060;2022-10-31T02:10:31;40;31;
51052;PMS5003;37093;37.716;-122.060;2022-10-31T02:13:03;44;30;
51052;PMS5003;37093;37.716;-122.060;2022-10-31T02:15:33;39;30;
51052;PMS5003;37093;37.716;-122.060;2022-10-31T02:18:04;32;28;
51052;PMS5003;37093;37.716;-122.060;2022-10-31T02:20:37;44;31;
51052;PMS5003;37093;37.716;-122.060;2022-10-31T02:23:22;36;28;
51052;PMS5003;37093;37.716;-122.060;2022-10-31T02:26:15;33;29;
51052;PMS5003;37093;37.716;-122.060;2022-10-31T02:29:07;29;25;
51052;PMS5003;37093;37.716;-122.060;2022-10-31T02:31:51;47;29;
51052;PMS5003;37093;37.716;-122.060;2022-10-31T02:34:24;30;29;
51052;PMS5003;37093;37.716;-122.060;2022-10-31T02:37:03;38;27;
51052;PMS5003;37093;37.716;-122.060;2022-10-31T02:39:42;39;28;
51052;PMS5003;37093;37.716;-122.060;2022-10-31T02:42:16;33;30;
51052;PMS5003;37093;37.716;-122.060;2022-10-31T02:44:54;38;28;
51052;PMS5003;37093;37.716;-122.060;2022-10-31T02:47:28;39;26;
51052;PMS5003;37093;37.716;-122.060;2022-10-31T02:50:01;41;29;
51052;PMS5003;37093;37.716;-122.060;2022-10-31T02:52:33;34;29;
51052;PMS5003;37093;37.716;-122.060;2022-10-31T02:55:10;36;29;
51052;PMS5003;37093;37.716;-122.060;2022-10-31T02:58:09;39;31;
51052;PMS5003;37093;37.716;-122.060;2022-10-31T03:00:41;47;27;
51052;PMS5003;37093;37.716;-122.060;2022-10-31T03:03:20;42;30;
51052;PMS5003;37093;37.716;-122.060;2022-10-31T03:05:55;52;36;
51052;PMS5003;37093;37.716;-122.060;2022-10-31T03:08:32;37;32;
51052;PMS5003;37093;37.716;-122.060;2022-10-31T03:11:08;40;33;
51052;PMS5003;37093;37.716;-122.060;2022-10-31T03:13:39;35;34;
51052;PMS5003;37093;37.716;-122.060;2022-10-31T03:16:14;46;34;
51052;PMS5003;37093;37.716;-122.060;2022-10-31T03:18:48;46;33;
51052;PMS5003;37093;37.716;-122.060;2022-10-31T03:21:22;44;34;
51052;PMS5003;37093;37.716;-122.060;2022-10-31T03:23:55;43;31;
51052;PMS5003;37093;37.716;-122.060;2022-10-31T03:26:25;51;36;
51052;PMS5003;37093;37.716;-122.060;2022-10-31T03:28:56;38;32;
51052;PMS5003;37093;37.716;-122.060;2022-10-31T03:31:30;40;31;
51052;PMS5003;37093;37.716;-122.060;2022-10-31T03:34:07;34;30;
51052;PMS5003;37093;37.716;-122.060;2022-10-31T03:36:39;45;34;
51052;PMS5003;37093;37.716;-122.060;2022-10-31T03:39:10;38;34;
51052;PMS5003;37093;37.716;-122.060;2022-10-31T03:41:43;45;30;
51052;PMS5003;37093;37.716;-122.060;2022-10-31T03:44:16;51;36;
51052;PMS5003;37093;37.716;-122.060;2022-10-31T03:46:49;50;32;
51052;PMS5003;37093;37.716;-122.060;2022-10-31T03:49:17;42;38;
51052;PMS5003;37093;37.716;-122.060;2022-10-31T03:51:47;41;36;
51052;PMS5003;37093;37.716;-122.060;2022-10-31T03:54:24;43;30;
51052;PMS5003;37093;37.716;-122.060;2022-10-31T03:56:58;51;33;
51052;PMS5003;37093;37.716;-122.060;2022-10-31T03:59:35;44;35;
51052;PMS5003;37093;37.716;-122.060;2022-10-31T04:02:10;43;35;
51052;PMS5003;37093;37.716;-122.060;2022-10-31T04:04:42;37;35;
51052;PMS5003;37093;37.716;-122.060;2022-10-31T04:07:17;44;35;
51052;PMS5003;37093;37.716;-122.060;2022-10-31T04:09:48;44;37;
51052;PMS5003;37093;37.716;-122.060;2022-10-31T04:12:19;44;34;
51052;PMS5003;37093;37.716;-122.060;2022-10-31T04:14:50;58;40;
51052;PMS5003;37093;37.716;-122.060;2022-10-31T04:17:27;47;38;
51052;PMS5003;37093;37.716;-122.060;2022-10-31T04:20:00;49;39;
51052;PMS5003;37093;37.716;-122.060;2022-10-31T04:22:28;51;39;
51052;PMS5003;37093;37.716;-122.060;2022-10-31T04:24:57;37;32;
51052;PMS5003;37093;37.716;-122.060;2022-10-31T04:27:25;48;34;
51052;PMS5003;37093;37.716;-122.060;2022-10-31T04:29:54;47;37;
51052;PMS5003;37093;37.716;-122.060;2022-10-31T04:32:23;44;32;
51052;PMS5003;37093;37.716;-122.060;2022-10-31T04:34:51;34;34;
51052;PMS5003;37093;37.716;-122.060;2022-10-31T04:37:19;44;34;
51052;PMS5003;37093;37.716;-122.060;2022-10-31T04:39:48;55;36;
51052;PMS5003;37093;37.716;-122.060;2022-10-31T04:42:21;53;38;
51052;PMS5003;37093;37.716;-122.060;2022-10-31T04:44:49;52;35;
51052;PMS5003;37093;37.716;-122.060;2022-10-31T04:47:18;46;34;
51052;PMS5003;37093;37.716;-122.060;2022-10-31T04:49:46;42;33;
51052;PMS5003;37093;37.716;-122.060;2022-10-31T04:52:14;36;35;
51052;PMS5003;37093;37.716;-122.060;2022-10-31T04:54:42;53;36;
51052;PMS5003;37093;37.716;-122.060;2022-10-31T04:57:10;44;37;
51052;PMS5003;37093;37.716;-122.060;2022-10-31T04:59:39;47;33;
51052;PMS5003;37093;37.716;-122.060;2022-10-31T05:02:07;41;33;
51052;PMS5003;37093;37.716;-122.060;2022-10-31T05:04:40;41;35;
51052;PMS5003;37093;37.716;-122.060;2022-10-31T05:07:09;43;34;
51052;PMS5003;37093;37.716;-122.060;2022-10-31T05:09:37;44;36;
51052;PMS5003;37093;37.716;-122.060;2022-10-31T05:12:05;51;33;
51052;PMS5003;37093;37.716;-122.060;2022-10-31T05:14:34;45;34;
51052;PMS5003;37093;37.716;-122.060;2022-10-31T05:17:02;40;32;
51052;PMS5003;37093;37.716;-122.060;2022-10-31T05:19:31;39;34;
51052;PMS5003;37093;37.716;-122.060;2022-10-31T05:21:59;37;34;
51052;PMS5003;37093;37.716;-122.060;2022-10-31T05:24:28;42;29;
51052;PMS5003;37093;37.716;-122.060;2022-10-31T05:27:01;35;29;
51052;PMS5003;37093;37.716;-122.060;2022-10-31T05:29:29;41;33;
51052;PMS5003;37093;37.716;-122.060;2022-10-31T05:31:57;35;31;
51052;PMS5003;37093;37.716;-122.060;2022-10-31T05:34:27;45;37;
51052;PMS5003;37093;37.716;-122.060;2022-10-31T05:36:55;45;32;
51052;PMS5003;37093;37.716;-122.060;2022-10-31T05:39:23;45;32;
51052;PMS5003;37093;37.716;-122.060;2022-10-31T05:41:52;49;36;
51052;PMS5003;37093;37.716;-122.060;2022-10-31T05:44:20;36;32;
51052;PMS5003;37093;37.716;-122.060;2022-10-31T05:46:48;39;27;
51052;PMS5003;37093;37.716;-122.060;2022-10-31T05:49:21;34;32;
51052;PMS5003;37093;37.716;-122.060;2022-10-31T05:51:50;35;31;
51052;PMS5003;37093;37.716;-122.060;2022-10-31T05:54:19;39;33;
51052;PMS5003;37093;37.716;-122.060;2022-10-31T05:56:47;35;29;
51052;PMS5003;37093;37.716;-122.060;2022-10-31T05:59:15;32;29;
51052;PMS5003;37093;37.716;-122.060;2022-10-31T06:01:44;35;27;
51052;PMS5003;37093;37.716;-122.060;2022-10-31T06:04:12;48;32;
51052;PMS5003;37093;37.716;-122.060;2022-10-31T06:06:41;45;26;
51052;PMS5003;37093;37.716;-122.060;2022-10-31T06:09:10;35;25;
51052;PMS5003;37093;37.716;-122.060;2022-10-31T06:11:39;30;29;
51052;PMS5003;37093;37.716;-122.060;2022-10-31T06:14:08;43;28;
51052;PMS5003;37093;37.716;-122.060;2022-10-31T06:16:37;44;26;
51052;PMS5003;37093;37.716;-122.060;2022-10-31T06:19:05;29;24;
51052;PMS5003;37093;37.716;-122.060;2022-10-31T06:21:34;29;26;
51052;PMS5003;37093;37.716;-122.060;2022-10-31T06:24:07;39;27;
51052;PMS5003;37093;37.716;-122.060;2022-10-31T06:26:35;35;24;
51052;PMS5003;37093;37.716;-122.060;2022-10-31T06:29:03;34;25;
51052;PMS5003;37093;37.716;-122.060;2022-10-31T06:31:32;37;25;
51052;PMS5003;37093;37.716;-122.060;2022-10-31T06:34:00;33;25;
51052;PMS5003;37093;37.716;-122.060;2022-10-31T06:36:29;25;21;
51052;PMS5003;37093;37.716;-122.060;2022-10-31T06:38:58;33;25;
51052;PMS5003;37093;37.716;-122.060;2022-10-31T06:41:27;33;26;
51052;PMS5003;37093;37.716;-122.060;2022-10-31T06:43:56;37;23;
51052;PMS5003;37093;37.716;-122.060;2022-10-31T06:46:24;24;20;
51052;PMS5003;37093;37.716;-122.060;2022-10-31T06:48:53;36;24;
51052;PMS5003;37093;37.716;-122.060;2022-10-31T06:51:21;25;23;
51052;PMS5003;37093;37.716;-122.060;2022-10-31T06:53:50;42;27;
51052;PMS5003;37093;37.716;-122.060;2022-10-31T06:56:19;28;24;
51052;PMS5003;37093;37.716;-122.060;2022-10-31T06:58:52;31;27;
51052;PMS5003;37093;37.716;-122.060;2022-10-31T07:01:07;28;23;
51052;PMS5003;37093;37.716;-122.060;2022-10-31T07:03:36;39;28;
51052;PMS5003;37093;37.716;-122.060;2022-10-31T07:06:05;37;28;
51052;PMS5003;37093;37.716;-122.060;2022-10-31T07:08:33;39;26;
51052;PMS5003;37093;37.716;-122.060;2022-10-31T07:11:01;35;23;
51052;PMS5003;37093;37.716;-122.060;2022-10-31T07:13:30;38;28;
51052;PMS5003;37093;37.716;-122.060;2022-10-31T07:15:59;38;26;
51052;PMS5003;37093;37.716;-122.060;2022-10-31T07:18:29;29;22;
51052;PMS5003;37093;37.716;-122.060;2022-10-31T07:20:57;35;25;
51052;PMS5003;37093;37.716;-122.060;2022-10-31T07:23:26;29;22;
51052;PMS5003;37093;37.716;-122.060;2022-10-31T07:25:55;33;25;
51052;PMS5003;37093;37.716;-122.060;2022-10-31T07:28:23;30;22;
51052;PMS5003;37093;37.716;-122.060;2022-10-31T07:30:53;40;21;
51052;PMS5003;37093;37.716;-122.060;2022-10-31T07:33:23;33;23;
51052;PMS5003;37093;37.716;-122.060;2022-10-31T07:35:52;25;21;
51052;PMS5003;37093;37.716;-122.060;2022-10-31T07:38:21;20;18;
51052;PMS5003;37093;37.716;-122.060;2022-10-31T07:40:50;24;15;
51052;PMS5003;37093;37.716;-122.060;2022-10-31T07:43:19;25;23;
51052;PMS5003;37093;37.716;-122.060;2022-10-31T07:45:50;36;22;
51052;PMS5003;37093;37.716;-122.060;2022-10-31T07:48:20;27;20;
51052;PMS5003;37093;37.716;-122.060;2022-10-31T07:50:48;25;17;
51052;PMS5003;37093;37.716;-122.060;2022-10-31T07:53:16;32;18;
51052;PMS5003;37093;37.716;-122.060;2022-10-31T07:55:50;30;22;
51052;PMS5003;37093;37.716;-122.060;2022-10-31T07:58:18;18;17;
51052;PMS5003;37093;37.716;-122.060;2022-10-31T08:00:47;27;22;
51052;PMS5003;37093;37.716;-122.060;2022-10-31T08:03:16;23;18;
51052;PMS5003;37093;37.716;-122.060;2022-10-31T08:05:45;27;19;
51052;PMS5003;37093;37.716;-122.060;2022-10-31T08:08:14;20;14;
51052;PMS5003;37093;37.716;-122.060;2022-10-31T08:10:42;25;18;
51052;PMS5003;37093;37.716;-122.060;2022-10-31T08:13:11;25;18;
51052;PMS5003;37093;37.716;-122.060;2022-10-31T08:15:40;25;19;
51052;PMS5003;37093;37.716;-122.060;2022-10-31T08:18:14;18;16;
51052;PMS5003;37093;37.716;-122.060;2022-10-31T08:20:43;23;17;
51052;PMS5003;37093;37.716;-122.060;2022-10-31T08:23:11;22;15;
51052;PMS5003;37093;37.716;-122.060;2022-10-31T08:25:40;28;19;
51052;PMS5003;37093;37.716;-122.060;2022-10-31T08:28:09;34;19;
51052;PMS5003;37093;37.716;-122.060;2022-10-31T08:30:38;18;16;
51052;PMS5003;37093;37.716;-122.060;2022-10-31T08:33:09;28;16;
51052;PMS5003;37093;37.716;-122.060;2022-10-31T08:35:39;25;18;
51052;PMS5003;37093;37.716;-122.060;2022-10-31T08:38:08;21;16;
51052;PMS5003;37093;37.716;-122.060;2022-10-31T08:40:43;20;16;
51052;PMS5003;37093;37.716;-122.060;2022-10-31T08:43:15;17;13;
51052;PMS5003;37093;37.716;-122.060;2022-10-31T08:45:46;33;19;
51052;PMS5003;37093;37.716;-122.060;2022-10-31T08:48:16;21;17;
51052;PMS5003;37093;37.716;-122.060;2022-10-31T08:50:44;27;17;
51052;PMS5003;37093;37.716;-122.060;2022-10-31T08:53:14;20;18;
51052;PMS5003;37093;37.716;-122.060;2022-10-31T08:55:44;24;17;
51052;PMS5003;37093;37.716;-122.060;2022-10-31T08:58:14;24;17;
51052;PMS5003;37093;37.716;-122.060;2022-10-31T09:00:43;19;16;
51052;PMS5003;37093;37.716;-122.060;2022-10-31T09:03:18;25;18;
51052;PMS5003;37093;37.716;-122.060;2022-10-31T09:05:47;24;16;
51052;PMS5003;37093;37.716;-122.060;2022-10-31T09:08:16;14;12;
51052;PMS5003;37093;37.716;-122.060;2022-10-31T09:10:45;19;13;
51052;PMS5003;37093;37.716;-122.060;2022-10-31T09:13:14;19;15;
51052;PMS5003;37093;37.716;-122.060;2022-10-31T09:15:44;16;13;
51052;PMS5003;37093;37.716;-122.060;2022-10-31T09:18:15;18;11;
51052;PMS5003;37093;37.716;-122.060;2022-10-31T09:20:47;32;15;
51052;PMS5003;37093;37.716;-122.060;2022-10-31T09:23:17;24;15;
51052;PMS5003;37093;37.716;-122.060;2022-10-31T09:25:47;15;14;
51052;PMS5003;37093;37.716;-122.060;2022-10-31T09:28:17;16;13;
51052;PMS5003;37093;37.716;-122.060;2022-10-31T09:30:47;18;17;
51052;PMS5003;37093;37.716;-122.060;2022-10-31T09:33:17;17;14;
51052;PMS5003;37093;37.716;-122.060;2022-10-31T09:35:45;15;13;
51052;PMS5003;37093;37.716;-122.060;2022-10-31T09:38:19;16;15;
51052;PMS5003;37093;37.716;-122.060;2022-10-31T09:43:43;17;14;
51052;PMS5003;37093;37.716;-122.060;2022-10-31T09:46:20;22;16;
51052;PMS5003;37093;37.716;-122.060;2022-10-31T09:49:00;13;10;
51052;PMS5003;37093;37.716;-122.060;2022-10-31T09:51:51;15;11;
51052;PMS5003;37093;37.716;-122.060;2022-10-31T09:54:26;15;12;
51052;PMS5003;37093;37.716;-122.060;2022-10-31T09:56:59;15;13;
51052;PMS5003;37093;37.716;-122.060;2022-10-31T09:59:29;12;12;
51052;PMS5003;37093;37.716;-122.060;2022-10-31T10:02:02;13;11;
51052;PMS5003;37093;37.716;-122.060;2022-10-31T10:04:36;14;12;
51052;PMS5003;37093;37.716;-122.060;2022-10-31T10:07:11;19;15;
51052;PMS5003;37093;37.716;-122.060;2022-10-31T10:09:46;14;14;
51052;PMS5003;37093;37.716;-122.060;2022-10-31T10:12:34;19;15;
51052;PMS5003;37093;37.716;-122.060;2022-10-31T10:15:24;17;14;
51052;PMS5003;37093;37.716;-122.060;2022-10-31T10:18:02;19;16;
51052;PMS5003;37093;37.716;-122.060;2022-10-31T10:20:41;24;16;
51052;PMS5003;37093;37.716;-122.060;2022-10-31T10:23:27;10;10;
51052;PMS5003;37093;37.716;-122.060;2022-10-31T10:26:05;21;13;
51052;PMS5003;37093;37.716;-122.060;2022-10-31T10:28:43;19;13;
51052;PMS5003;37093;37.716;-122.060;2022-10-31T10:31:17;14;10;
51052;PMS5003;37093;37.716;-122.060;2022-10-31T10:33:55;19;13;
51052;PMS5003;37093;37.716;-122.060;2022-10-31T10:36:29;21;14;
51052;PMS5003;37093;37.716;-122.060;2022-10-31T10:39:04;15;11;
51052;PMS5003;37093;37.716;-122.060;2022-10-31T10:41:40;13;13;
51052;PMS5003;37093;37.716;-122.060;2022-10-31T10:44:11;16;12;
51052;PMS5003;37093;37.716;-122.060;2022-10-31T10:46:47;12;12;
51052;PMS5003;37093;37.716;-122.060;2022-10-31T10:49:23;21;13;
51052;PMS5003;37093;37.716;-122.060;2022-10-31T10:51:59;15;12;
51052;PMS5003;37093;37.716;-122.060;2022-10-31T10:54:42;21;15;
51052;PMS5003;37093;37.716;-122.060;2022-10-31T10:57:26;18;14;
51052;PMS5003;37093;37.716;-122.060;2022-10-31T11:00:13;24;14;
51052;PMS5003;37093;37.716;-122.060;2022-10-31T11:02:44;19;10;
51052;PMS5003;37093;37.716;-122.060;2022-10-31T11:05:15;21;12;
51052;PMS5003;37093;37.716;-122.060;2022-10-31T11:07:49;13;12;
51052;PMS5003;37093;37.716;-122.060;2022-10-31T11:10:18;12;9;
51052;PMS5003;37093;37.716;-122.060;2022-10-31T11:12:58;15;11;
51052;PMS5003;37093;37.716;-122.060;2022-10-31T11:15:31;11;11;
51052;PMS5003;37093;37.716;-122.060;2022-10-31T11:18:03;14;10;
51052;PMS5003;37093;37.716;-122.060;2022-10-31T11:20:37;11;11;
51052;PMS5003;37093;37.716;-122.060;2022-10-31T11:23:24;13;11;
51052;PMS5003;37093;37.716;-122.060;2022-10-31T11:25:54;19;12;
51052;PMS5003;37093;37.716;-122.060;2022-10-31T11:28:24;15;12;
51052;PMS5003;37093;37.716;-122.060;2022-10-31T11:30:53;12;11;
51052;PMS5003;37093;37.716;-122.060;2022-10-31T11:33:25;16;13;
51052;PMS5003;37093;37.716;-122.060;2022-10-31T11:35:58;15;10;
51052;PMS5003;37093;37.716;-122.060;2022-10-31T11:38:31;11;9;
51052;PMS5003;37093;37.716;-122.060;2022-10-31T11:41:11;12;10;
51052;PMS5003;37093;37.716;-122.060;2022-10-31T11:43:46;16;12;
51052;PMS5003;37093;37.716;-122.060;2022-10-31T11:46:19;11;11;
51052;PMS5003;37093;37.716;-122.060;2022-10-31T11:48:53;13;9;
51052;PMS5003;37093;37.716;-122.060;2022-10-31T11:51:24;18;13;
51052;PMS5003;37093;37.716;-122.060;2022-10-31T11:53:56;18;8;
51052;PMS5003;37093;37.716;-122.060;2022-10-31T11:56:26;11;9;
51052;PMS5003;37093;37.716;-122.060;2022-10-31T11:58:55;15;10;
51052;PMS5003;37093;37.716;-122.060;2022-10-31T12:01:24;13;10;
51052;PMS5003;37093;37.716;-122.060;2022-10-31T12:03:57;12;11;
51052;PMS5003;37093;37.716;-122.060;2022-10-31T12:06:34;12;9;
51052;PMS5003;37093;37.716;-122.060;2022-10-31T12:09:08;15;8;
51052;PMS5003;37093;37.716;-122.060;2022-10-31T12:11:52;12;11;
51052;PMS5003;37093;37.716;-122.060;2022-10-31T12:14:33;17;10;
51052;PMS5003;37093;37.716;-122.060;2022-10-31T12:17:11;15;11;
51052;PMS5003;37093;37.716;-122.060;2022-10-31T12:19:44;17;10;
51052;PMS5003;37093;37.716;-122.060;2022-10-31T12:22:23;14;14;
51052;PMS5003;37093;37.716;-122.060;2022-10-31T12:25:05;22;11;
51052;PMS5003;37093;37.716;-122.060;2022-10-31T12:27:52;12;10;
51052;PMS5003;37093;37.716;-122.060;2022-10-31T12:30:33;19;10;
51052;PMS5003;37093;37.716;-122.060;2022-10-31T12:33:18;14;9;
51052;PMS5003;37093;37.716;-122.060;2022-10-31T12:35:59;14;11;
51052;PMS5003;37093;37.716;-122.060;2022-10-31T12:38:50;11;10;
51052;PMS5003;37093;37.716;-122.060;2022-10-31T12:41:36;13;12;
51052;PMS5003;37093;37.716;-122.060;2022-10-31T12:44:27;15;11;
51052;PMS5003;37093;37.716;-122.060;2022-10-31T12:47:13;11;9;
51052;PMS5003;37093;37.716;-122.060;2022-10-31T12:49:58;13;9;
51052;PMS5003;37093;37.716;-122.060;2022-10-31T12:52:44;11;7;
51052;PMS5003;37093;37.716;-122.060;2022-10-31T12:55:27;16;12;
51052;PMS5003;37093;37.716;-122.060;2022-10-31T12:58:02;14;11;
51052;PMS5003;37093;37.716;-122.060;2022-10-31T13:00:36;11;10;
51052;PMS5003;37093;37.716;-122.060;2022-10-31T13:03:13;12;9;
51052;PMS5003;37093;37.716;-122.060;2022-10-31T13:05:51;10;9;
51052;PMS5003;37093;37.716;-122.060;2022-10-31T13:08:26;11;11;
51052;PMS5003;37093;37.716;-122.060;2022-10-31T13:11:06;11;9;
51052;PMS5003;37093;37.716;-122.060;2022-10-31T13:13:40;14;10;
51052;PMS5003;37093;37.716;-122.060;2022-10-31T13:16:13;10;8;
51052;PMS5003;37093;37.716;-122.060;2022-10-31T13:18:46;11;10;
51052;PMS5003;37093;37.716;-122.060;2022-10-31T13:21:24;21;11;
51052;PMS5003;37093;37.716;-122.060;2022-10-31T13:23:57;16;12;
51052;PMS5003;37093;37.716;-122.060;2022-10-31T13:26:33;13;9;
51052;PMS5003;37093;37.716;-122.060;2022-10-31T13:29:08;17;11;
51052;PMS5003;37093;37.716;-122.060;2022-10-31T13:31:44;12;10;
51052;PMS5003;37093;37.716;-122.060;2022-10-31T13:34:18;11;9;
51052;PMS5003;37093;37.716;-122.060;2022-10-31T13:36:53;14;11;
51052;PMS5003;37093;37.716;-122.060;2022-10-31T13:39:31;11;10;
51052;PMS5003;37093;37.716;-122.060;2022-10-31T13:42:17;18;11;
51052;PMS5003;37093;37.716;-122.060;2022-10-31T13:44:52;14;11;
51052;PMS5003;37093;37.716;-122.060;2022-10-31T13:47:21;15;12;
51052;PMS5003;37093;37.716;-122.060;2022-10-31T13:50:03;17;13;
51052;PMS5003;37093;37.716;-122.060;2022-10-31T13:52:33;16;13;
51052;PMS5003;37093;37.716;-122.060;2022-10-31T13:55:02;16;12;
51052;PMS5003;37093;37.716;-122.060;2022-10-31T13:57:31;18;16;
51052;PMS5003;37093;37.716;-122.060;2022-10-31T14:00:03;16;11;
51052;PMS5003;37093;37.716;-122.060;2022-10-31T14:02:55;16;11;
51052;PMS5003;37093;37.716;-122.060;2022-10-31T14:05:24;15;12;
51052;PMS5003;37093;37.716;-122.060;2022-10-31T14:07:56;22;16;
51052;PMS5003;37093;37.716;-122.060;2022-10-31T14:10:28;17;16;
51052;PMS5003;37093;37.716;-122.060;2022-10-31T14:13:04;20;13;
51052;PMS5003;37093;37.716;-122.060;2022-10-31T14:15:36;15;13;
51052;PMS5003;37093;37.716;-122.060;2022-10-31T14:18:21;18;11;
51052;PMS5003;37093;37.716;-122.060;2022-10-31T14:20:50;15;12;
51052;PMS5003;37093;37.716;-122.060;2022-10-31T14:23:40;19;14;
51052;PMS5003;37093;37.716;-122.060;2022-10-31T14:26:18;19;14;
51052;PMS5003;37093;37.716;-122.060;2022-10-31T14:28:57;16;15;
51052;PMS5003;37093;37.716;-122.060;2022-10-31T14:31:29;14;12;
51052;PMS5003;37093;37.716;-122.060;2022-10-31T14:34:04;14;14;
51052;PMS5003;37093;37.716;-122.060;2022-10-31T14:36:50;28;15;
51052;PMS5003;37093;37.716;-122.060;2022-10-31T14:39:39;28;15;
51052;PMS5003;37093;37.716;-122.060;2022-10-31T14:42:21;16;15;
51052;PMS5003;37093;37.716;-122.060;2022-10-31T14:45:23;17;12;
51052;PMS5003;37093;37.716;-122.060;2022-10-31T14:48:17;15;12;
51052;PMS5003;37093;37.716;-122.060;2022-10-31T14:51:01;20;15;
51052;PMS5003;37093;37.716;-122.060;2022-10-31T14:53:45;16;13;
51052;PMS5003;37093;37.716;-122.060;2022-10-31T14:56:19;27;14;
51052;PMS5003;37093;37.716;-122.060;2022-10-31T14:58:52;15;14;
51052;PMS5003;37093;37.716;-122.060;2022-10-31T15:01:23;30;14;
51052;PMS5003;37093;37.716;-122.060;2022-10-31T15:03:54;19;17;
51052;PMS5003;37093;37.716;-122.060;2022-10-31T15:06:30;15;13;
51052;PMS5003;37093;37.716;-122.060;2022-10-31T15:09:05;22;14;
51052;PMS5003;37093;37.716;-122.060;2022-10-31T15:11:48;19;12;
51052;PMS5003;37093;37.716;-122.060;2022-10-31T15:14:21;22;11;
51052;PMS5003;37093;37.716;-122.060;2022-10-31T15:16:52;18;15;
51052;PMS5003;37093;37.716;-122.060;2022-10-31T15:19:26;20;13;
51052;PMS5003;37093;37.716;-122.060;2022-10-31T15:21:57;18;15;
51052;PMS5003;37093;37.716;-122.060;2022-10-31T15:24:27;16;13;
51052;PMS5003;37093;37.716;-122.060;2022-10-31T15:27:00;18;16;
51052;PMS5003;37093;37.716;-122.060;2022-10-31T15:29:29;17;14;
51052;PMS5003;37093;37.716;-122.060;2022-10-31T15:31:59;17;14;
51052;PMS5003;37093;37.716;-122.060;2022-10-31T15:34:43;31;18;
51052;PMS5003;37093;37.716;-122.060;2022-10-31T15:37:13;19;15;
51052;PMS5003;37093;37.716;-122.060;2022-10-31T15:39:48;20;13;
51052;PMS5003;37093;37.716;-122.060;2022-10-31T15:42:18;31;14;
51052;PMS5003;37093;37.716;-122.060;2022-10-31T15:44:49;20;17;
51052;PMS5003;37093;37.716;-122.060;2022-10-31T15:47:23;16;13;
51052;PMS5003;37093;37.716;-122.060;2022-10-31T15:49:52;23;14;
51052;PMS5003;37093;37.716;-122.060;2022-10-31T15:52:25;27;22;
51052;PMS5003;37093;37.716;-122.060;2022-10-31T15:54:58;19;13;
51052;PMS5003;37093;37.716;-122.060;2022-10-31T15:57:30;19;13;
51052;PMS5003;37093;37.716;-122.060;2022-10-31T16:00:05;16;14;
51052;PMS5003;37093;37.716;-122.060;2022-10-31T16:02:49;18;15;
51052;PMS5003;37093;37.716;-122.060;2022-10-31T16:05:32;16;13;
51052;PMS5003;37093;37.716;-122.060;2022-10-31T16:08:03;17;15;
51052;PMS5003;37093;37.716;-122.060;2022-10-31T16:10:48;13;11;
51052;PMS5003;37093;37.716;-122.060;2022-10-31T16:13:18;17;13;